sensor_id;sensor_type;location;lat;lon;timestamp;P1;durP1;ratioP1;P2;durP2;ratioP2
5981;SDS011;3018;48.730;9.336;2023-07-20T00:01:09;5.78;;;2.47;;
5981;SDS011;3018;48.730;9.336;2023-07-20T00:03:35;2.15;;;1.73;;
5981;SDS011;3018;48.730;9.336;2023-07-20T00:06:01;3.00;;;2.10;;
5981;SDS011;3018;48.730;9.336;2023-07-20T00:08:29;2.17;;;2.08;;
5981;SDS011;3018;48.730;9.336;2023-07-20T00:10:57;5.43;;;2.08;;
5981;SDS011;3018;48.730;9.336;2023-07-20T00:13:23;1.85;;;1.65;;
5981;SDS011;3018;48.730;9.336;2023-07-20T00:15:50;3.35;;;1.98;;
5981;SDS011;3018;48.730;9.336;2023-07-20T00:18:16;3.85;;;1.95;;
5981;SDS011;3018;48.730;9.336;2023-07-20T00:20:46;3.97;;;1.90;;
5981;SDS011;3018;48.730;9.336;2023-07-20T00:23:12;3.25;;;1.77;;
5981;SDS011;3018;48.730;9.336;2023-07-20T00:25:39;3.35;;;1.42;;
5981;SDS011;3018;48.730;9.336;2023-07-20T00:28:06;4.50;;;2.38;;
5981;SDS011;3018;48.730;9.336;2023-07-20T00:30:33;3.08;;;2.17;;
5981;SDS011;3018;48.730;9.336;2023-07-20T00:32:59;4.05;;;1.73;;
5981;SDS011;3018;48.730;9.336;2023-07-20T00:35:25;2.17;;;1.70;;
5981;SDS011;3018;48.730;9.336;2023-07-20T00:37:52;3.63;;;1.63;;
5981;SDS011;3018;48.730;9.336;2023-07-20T00:40:18;2.92;;;1.90;;
5981;SDS011;3018;48.730;9.336;2023-07-20T00:42:44;2.70;;;1.92;;
5981;SDS011;3018;48.730;9.336;2023-07-20T00:45:12;3.35;;;1.90;;
5981;SDS011;3018;48.730;9.336;2023-07-20T00:47:38;3.25;;;1.77;;
5981;SDS011;3018;48.730;9.336;2023-07-20T00:50:05;4.65;;;1.50;;
5981;SDS011;3018;48.730;9.336;2023-07-20T00:52:31;3.35;;;1.60;;
5981;SDS011;3018;48.730;9.336;2023-07-20T00:54:58;7.28;;;1.90;;
5981;SDS011;3018;48.730;9.336;2023-07-20T00:57:25;3.13;;;1.63;;
5981;SDS011;3018;48.730;9.336;2023-07-20T00:59:51;1.48;;;1.48;;
5981;SDS011;3018;48.730;9.336;2023-07-20T01:02:19;2.00;;;1.80;;
5981;SDS011;3018;48.730;9.336;2023-07-20T01:04:46;3.63;;;1.30;;
5981;SDS011;3018;48.730;9.336;2023-07-20T01:07:13;2.25;;;1.80;;
5981;SDS011;3018;48.730;9.336;2023-07-20T01:09:42;2.50;;;1.88;;
5981;SDS011;3018;48.730;9.336;2023-07-20T01:12:09;1.75;;;1.65;;
5981;SDS011;3018;48.730;9.336;2023-07-20T01:14:38;2.00;;;1.63;;
5981;SDS011;3018;48.730;9.336;2023-07-20T01:17:04;1.65;;;1.45;;
5981;SDS011;3018;48.730;9.336;2023-07-20T01:19:32;1.75;;;1.65;;
5981;SDS011;3018;48.730;9.336;2023-07-20T01:21:59;1.70;;;1.60;;
5981;SDS011;3018;48.730;9.336;2023-07-20T01:27:18;2.90;;;2.17;;
5981;SDS011;3018;48.730;9.336;2023-07-20T01:29:54;1.70;;;1.60;;
5981;SDS011;3018;48.730;9.336;2023-07-20T01:32:23;1.85;;;1.75;;
5981;SDS011;3018;48.730;9.336;2023-07-20T01:34:50;1.90;;;1.75;;
5981;SDS011;3018;48.730;9.336;2023-07-20T01:37:18;1.48;;;1.48;;
5981;SDS011;3018;48.730;9.336;2023-07-20T01:39:45;2.20;;;1.73;;
5981;SDS011;3018;48.730;9.336;2023-07-20T01:42:12;3.13;;;1.75;;
5981;SDS011;3018;48.730;9.336;2023-07-20T01:44:38;3.33;;;1.88;;
5981;SDS011;3018;48.730;9.336;2023-07-20T01:47:04;1.98;;;1.70;;
5981;SDS011;3018;48.730;9.336;2023-07-20T01:49:32;1.85;;;1.75;;
5981;SDS011;3018;48.730;9.336;2023-07-20T01:51:58;5.38;;;2.30;;
5981;SDS011;3018;48.730;9.336;2023-07-20T01:54:25;7.05;;;2.30;;
5981;SDS011;3018;48.730;9.336;2023-07-20T01:56:51;3.08;;;2.53;;
5981;SDS011;3018;48.730;9.336;2023-07-20T01:59:17;2.90;;;1.83;;
5981;SDS011;3018;48.730;9.336;2023-07-20T02:01:43;2.00;;;1.85;;
5981;SDS011;3018;48.730;9.336;2023-07-20T02:04:10;2.28;;;1.83;;
5981;SDS011;3018;48.730;9.336;2023-07-20T02:06:37;2.15;;;1.58;;
5981;SDS011;3018;48.730;9.336;2023-07-20T02:09:04;1.67;;;1.55;;
5981;SDS011;3018;48.730;9.336;2023-07-20T02:11:30;1.65;;;1.55;;
5981;SDS011;3018;48.730;9.336;2023-07-20T02:13:56;2.50;;;1.73;;
5981;SDS011;3018;48.730;9.336;2023-07-20T02:16:23;1.88;;;1.77;;
5981;SDS011;3018;48.730;9.336;2023-07-20T02:18:49;1.73;;;1.63;;
5981;SDS011;3018;48.730;9.336;2023-07-20T02:21:15;2.03;;;1.60;;
5981;SDS011;3018;48.730;9.336;2023-07-20T02:23:43;4.63;;;1.45;;
5981;SDS011;3018;48.730;9.336;2023-07-20T02:26:09;1.67;;;1.58;;
5981;SDS011;3018;48.730;9.336;2023-07-20T02:28:35;3.80;;;1.88;;
5981;SDS011;3018;48.730;9.336;2023-07-20T02:31:02;3.10;;;1.90;;
5981;SDS011;3018;48.730;9.336;2023-07-20T02:33:28;3.80;;;1.80;;
5981;SDS011;3018;48.730;9.336;2023-07-20T02:35:54;2.08;;;1.88;;
5981;SDS011;3018;48.730;9.336;2023-07-20T02:38:21;1.90;;;1.80;;
5981;SDS011;3018;48.730;9.336;2023-07-20T02:40:49;3.88;;;1.70;;
5981;SDS011;3018;48.730;9.336;2023-07-20T02:43:15;2.65;;;1.83;;
5981;SDS011;3018;48.730;9.336;2023-07-20T02:45:41;2.22;;;2.17;;
5981;SDS011;3018;48.730;9.336;2023-07-20T02:48:08;2.05;;;1.95;;
5981;SDS011;3018;48.730;9.336;2023-07-20T02:50:35;1.80;;;1.70;;
5981;SDS011;3018;48.730;9.336;2023-07-20T02:53:01;2.45;;;2.00;;
5981;SDS011;3018;48.730;9.336;2023-07-20T02:55:27;2.13;;;1.90;;
5981;SDS011;3018;48.730;9.336;2023-07-20T02:57:55;1.73;;;1.70;;
5981;SDS011;3018;48.730;9.336;2023-07-20T03:00:21;3.17;;;1.98;;
5981;SDS011;3018;48.730;9.336;2023-07-20T03:02:48;1.95;;;1.85;;
5981;SDS011;3018;48.730;9.336;2023-07-20T03:05:17;2.10;;;1.80;;
5981;SDS011;3018;48.730;9.336;2023-07-20T03:07:44;2.22;;;2.13;;
5981;SDS011;3018;48.730;9.336;2023-07-20T03:10:10;2.40;;;1.85;;
5981;SDS011;3018;48.730;9.336;2023-07-20T03:12:37;2.53;;;2.08;;
5981;SDS011;3018;48.730;9.336;2023-07-20T03:15:06;2.30;;;2.17;;
5981;SDS011;3018;48.730;9.336;2023-07-20T03:17:32;2.95;;;2.25;;
5981;SDS011;3018;48.730;9.336;2023-07-20T03:19:59;2.45;;;2.28;;
5981;SDS011;3018;48.730;9.336;2023-07-20T03:22:25;2.25;;;2.15;;
5981;SDS011;3018;48.730;9.336;2023-07-20T03:24:52;3.60;;;2.35;;
5981;SDS011;3018;48.730;9.336;2023-07-20T03:27:18;2.78;;;1.98;;
5981;SDS011;3018;48.730;9.336;2023-07-20T03:29:44;3.75;;;2.25;;
5981;SDS011;3018;48.730;9.336;2023-07-20T03:32:12;3.38;;;1.80;;
5981;SDS011;3018;48.730;9.336;2023-07-20T03:34:38;4.90;;;1.73;;
5981;SDS011;3018;48.730;9.336;2023-07-20T03:37:04;2.30;;;2.20;;
5981;SDS011;3018;48.730;9.336;2023-07-20T03:39:31;2.15;;;2.05;;
5981;SDS011;3018;48.730;9.336;2023-07-20T03:41:57;2.33;;;2.10;;
5981;SDS011;3018;48.730;9.336;2023-07-20T03:44:24;2.33;;;2.13;;
5981;SDS011;3018;48.730;9.336;2023-07-20T03:46:50;4.13;;;2.00;;
5981;SDS011;3018;48.730;9.336;2023-07-20T03:49:18;2.00;;;1.80;;
5981;SDS011;3018;48.730;9.336;2023-07-20T03:51:44;5.00;;;2.15;;
5981;SDS011;3018;48.730;9.336;2023-07-20T03:54:11;2.30;;;2.20;;
5981;SDS011;3018;48.730;9.336;2023-07-20T03:56:37;3.58;;;2.10;;
5981;SDS011;3018;48.730;9.336;2023-07-20T03:59:03;3.05;;;2.08;;
5981;SDS011;3018;48.730;9.336;2023-07-20T04:01:30;2.40;;;2.28;;
5981;SDS011;3018;48.730;9.336;2023-07-20T04:04:04;2.58;;;2.38;;
5981;SDS011;3018;48.730;9.336;2023-07-20T04:06:32;5.78;;;2.08;;
5981;SDS011;3018;48.730;9.336;2023-07-20T04:08:58;2.78;;;2.22;;
5981;SDS011;3018;48.730;9.336;2023-07-20T04:11:25;3.33;;;1.85;;
5981;SDS011;3018;48.730;9.336;2023-07-20T04:13:51;2.50;;;2.40;;
5981;SDS011;3018;48.730;9.336;2023-07-20T04:16:18;3.47;;;1.88;;
5981;SDS011;3018;48.730;9.336;2023-07-20T04:18:45;2.40;;;2.20;;
5981;SDS011;3018;48.730;9.336;2023-07-20T04:21:11;2.78;;;2.13;;
5981;SDS011;3018;48.730;9.336;2023-07-20T04:23:38;1.88;;;1.77;;
5981;SDS011;3018;48.730;9.336;2023-07-20T04:26:05;2.15;;;1.98;;
5981;SDS011;3018;48.730;9.336;2023-07-20T04:28:31;2.70;;;2.30;;
5981;SDS011;3018;48.730;9.336;2023-07-20T04:31:09;2.38;;;1.73;;
5981;SDS011;3018;48.730;9.336;2023-07-20T04:33:35;2.58;;;2.38;;
5981;SDS011;3018;48.730;9.336;2023-07-20T04:36:01;2.55;;;2.17;;
5981;SDS011;3018;48.730;9.336;2023-07-20T04:38:28;2.28;;;2.17;;
5981;SDS011;3018;48.730;9.336;2023-07-20T04:40:55;3.08;;;2.78;;
5981;SDS011;3018;48.730;9.336;2023-07-20T04:43:22;2.72;;;2.17;;
5981;SDS011;3018;48.730;9.336;2023-07-20T04:45:48;2.25;;;2.05;;
5981;SDS011;3018;48.730;9.336;2023-07-20T04:48:15;3.17;;;2.28;;
5981;SDS011;3018;48.730;9.336;2023-07-20T04:50:42;2.67;;;2.20;;
5981;SDS011;3018;48.730;9.336;2023-07-20T04:53:09;6.07;;;2.28;;
5981;SDS011;3018;48.730;9.336;2023-07-20T04:55:36;2.78;;;2.30;;
5981;SDS011;3018;48.730;9.336;2023-07-20T04:58:04;4.28;;;2.40;;
5981;SDS011;3018;48.730;9.336;2023-07-20T05:00:31;2.88;;;2.67;;
5981;SDS011;3018;48.730;9.336;2023-07-20T05:02:57;2.85;;;2.20;;
5981;SDS011;3018;48.730;9.336;2023-07-20T05:05:23;2.15;;;2.13;;
5981;SDS011;3018;48.730;9.336;2023-07-20T05:07:50;2.47;;;2.33;;
5981;SDS011;3018;48.730;9.336;2023-07-20T05:10:17;2.90;;;2.45;;
5981;SDS011;3018;48.730;9.336;2023-07-20T05:12:43;2.83;;;2.30;;
5981;SDS011;3018;48.730;9.336;2023-07-20T05:15:11;2.60;;;2.10;;
5981;SDS011;3018;48.730;9.336;2023-07-20T05:17:37;2.85;;;2.53;;
5981;SDS011;3018;48.730;9.336;2023-07-20T05:20:04;2.80;;;2.42;;
5981;SDS011;3018;48.730;9.336;2023-07-20T05:22:31;2.58;;;2.47;;
5981;SDS011;3018;48.730;9.336;2023-07-20T05:24:57;3.60;;;2.30;;
5981;SDS011;3018;48.730;9.336;2023-07-20T05:27:23;3.33;;;2.20;;
5981;SDS011;3018;48.730;9.336;2023-07-20T05:29:49;2.95;;;1.83;;
5981;SDS011;3018;48.730;9.336;2023-07-20T05:32:18;2.22;;;2.13;;
5981;SDS011;3018;48.730;9.336;2023-07-20T05:34:44;2.33;;;2.10;;
5981;SDS011;3018;48.730;9.336;2023-07-20T05:37:10;7.70;;;2.80;;
5981;SDS011;3018;48.730;9.336;2023-07-20T05:39:37;2.53;;;2.33;;
5981;SDS011;3018;48.730;9.336;2023-07-20T05:42:03;3.35;;;2.30;;
5981;SDS011;3018;48.730;9.336;2023-07-20T05:44:30;5.40;;;2.67;;
5981;SDS011;3018;48.730;9.336;2023-07-20T05:46:56;7.97;;;2.47;;
5981;SDS011;3018;48.730;9.336;2023-07-20T05:49:24;5.15;;;2.65;;
5981;SDS011;3018;48.730;9.336;2023-07-20T05:51:50;5.75;;;2.88;;
5981;SDS011;3018;48.730;9.336;2023-07-20T05:54:16;5.20;;;2.42;;
5981;SDS011;3018;48.730;9.336;2023-07-20T05:56:43;2.80;;;2.22;;
5981;SDS011;3018;48.730;9.336;2023-07-20T05:59:09;6.78;;;2.42;;
5981;SDS011;3018;48.730;9.336;2023-07-20T06:01:36;1.98;;;1.85;;
5981;SDS011;3018;48.730;9.336;2023-07-20T06:04:02;4.97;;;2.17;;
5981;SDS011;3018;48.730;9.336;2023-07-20T06:06:30;5.15;;;2.22;;
5981;SDS011;3018;48.730;9.336;2023-07-20T06:08:56;3.55;;;2.45;;
5981;SDS011;3018;48.730;9.336;2023-07-20T06:11:23;4.90;;;2.40;;
5981;SDS011;3018;48.730;9.336;2023-07-20T06:13:49;5.63;;;2.35;;
5981;SDS011;3018;48.730;9.336;2023-07-20T06:16:15;4.07;;;2.20;;
5981;SDS011;3018;48.730;9.336;2023-07-20T06:18:41;3.70;;;2.03;;
5981;SDS011;3018;48.730;9.336;2023-07-20T06:21:08;5.95;;;2.30;;
5981;SDS011;3018;48.730;9.336;2023-07-20T06:23:35;7.43;;;2.33;;
5981;SDS011;3018;48.730;9.336;2023-07-20T06:26:02;2.85;;;1.83;;
5981;SDS011;3018;48.730;9.336;2023-07-20T06:28:28;4.05;;;1.65;;
5981;SDS011;3018;48.730;9.336;2023-07-20T06:30:58;3.58;;;2.15;;
5981;SDS011;3018;48.730;9.336;2023-07-20T06:33:25;1.83;;;1.73;;
5981;SDS011;3018;48.730;9.336;2023-07-20T06:35:51;4.57;;;2.33;;
5981;SDS011;3018;48.730;9.336;2023-07-20T06:38:17;2.47;;;1.80;;
5981;SDS011;3018;48.730;9.336;2023-07-20T06:40:46;3.22;;;1.67;;
5981;SDS011;3018;48.730;9.336;2023-07-20T06:43:13;4.25;;;1.98;;
5981;SDS011;3018;48.730;9.336;2023-07-20T06:45:39;2.92;;;1.75;;
5981;SDS011;3018;48.730;9.336;2023-07-20T06:48:05;2.03;;;1.80;;
5981;SDS011;3018;48.730;9.336;2023-07-20T06:50:32;1.85;;;1.70;;
5981;SDS011;3018;48.730;9.336;2023-07-20T06:52:58;4.15;;;1.98;;
5981;SDS011;3018;48.730;9.336;2023-07-20T06:55:24;4.05;;;1.63;;
5981;SDS011;3018;48.730;9.336;2023-07-20T06:57:52;3.35;;;2.08;;
5981;SDS011;3018;48.730;9.336;2023-07-20T07:00:21;1.50;;;1.38;;
5981;SDS011;3018;48.730;9.336;2023-07-20T07:02:48;1.98;;;1.70;;
5981;SDS011;3018;48.730;9.336;2023-07-20T07:05:14;2.13;;;1.48;;
5981;SDS011;3018;48.730;9.336;2023-07-20T07:07:40;3.17;;;1.70;;
5981;SDS011;3018;48.730;9.336;2023-07-20T07:10:07;3.58;;;1.50;;
5981;SDS011;3018;48.730;9.336;2023-07-20T07:12:33;4.38;;;1.67;;
5981;SDS011;3018;48.730;9.336;2023-07-20T07:15:01;2.00;;;1.50;;
5981;SDS011;3018;48.730;9.336;2023-07-20T07:17:27;4.18;;;1.55;;
5981;SDS011;3018;48.730;9.336;2023-07-20T07:19:54;4.72;;;1.80;;
5981;SDS011;3018;48.730;9.336;2023-07-20T07:22:21;5.10;;;1.80;;
5981;SDS011;3018;48.730;9.336;2023-07-20T07:24:47;5.03;;;1.67;;
5981;SDS011;3018;48.730;9.336;2023-07-20T07:27:14;2.90;;;1.50;;
5981;SDS011;3018;48.730;9.336;2023-07-20T07:29:41;2.58;;;1.73;;
5981;SDS011;3018;48.730;9.336;2023-07-20T07:32:10;3.92;;;2.00;;
5981;SDS011;3018;48.730;9.336;2023-07-20T07:34:37;5.13;;;1.65;;
5981;SDS011;3018;48.730;9.336;2023-07-20T07:37:03;1.88;;;1.75;;
5981;SDS011;3018;48.730;9.336;2023-07-20T07:39:30;3.20;;;1.98;;
5981;SDS011;3018;48.730;9.336;2023-07-20T07:41:56;4.00;;;2.00;;
5981;SDS011;3018;48.730;9.336;2023-07-20T07:44:23;5.07;;;1.60;;
5981;SDS011;3018;48.730;9.336;2023-07-20T07:46:49;4.53;;;1.90;;
5981;SDS011;3018;48.730;9.336;2023-07-20T07:49:17;3.83;;;1.88;;
5981;SDS011;3018;48.730;9.336;2023-07-20T07:51:44;6.30;;;2.00;;
5981;SDS011;3018;48.730;9.336;2023-07-20T07:54:11;3.33;;;1.50;;
5981;SDS011;3018;48.730;9.336;2023-07-20T07:56:37;1.33;;;1.33;;
5981;SDS011;3018;48.730;9.336;2023-07-20T07:59:03;1.70;;;1.60;;
5981;SDS011;3018;48.730;9.336;2023-07-20T08:01:30;4.82;;;1.70;;
5981;SDS011;3018;48.730;9.336;2023-07-20T08:03:56;5.00;;;1.58;;
5981;SDS011;3018;48.730;9.336;2023-07-20T08:06:24;7.70;;;2.13;;
5981;SDS011;3018;48.730;9.336;2023-07-20T08:08:50;3.35;;;1.80;;
5981;SDS011;3018;48.730;9.336;2023-07-20T08:11:17;2.10;;;2.00;;
5981;SDS011;3018;48.730;9.336;2023-07-20T08:13:45;4.63;;;2.13;;
5981;SDS011;3018;48.730;9.336;2023-07-20T08:16:11;2.05;;;1.85;;
5981;SDS011;3018;48.730;9.336;2023-07-20T08:18:39;4.55;;;1.52;;
5981;SDS011;3018;48.730;9.336;2023-07-20T08:21:05;6.65;;;1.73;;
5981;SDS011;3018;48.730;9.336;2023-07-20T08:23:32;7.10;;;2.05;;
5981;SDS011;3018;48.730;9.336;2023-07-20T08:25:59;6.97;;;2.20;;
5981;SDS011;3018;48.730;9.336;2023-07-20T08:28:26;4.68;;;2.00;;
5981;SDS011;3018;48.730;9.336;2023-07-20T08:30:54;1.95;;;1.83;;
5981;SDS011;3018;48.730;9.336;2023-07-20T08:33:20;1.65;;;1.60;;
5981;SDS011;3018;48.730;9.336;2023-07-20T08:35:47;4.80;;;1.98;;
5981;SDS011;3018;48.730;9.336;2023-07-20T08:38:14;5.40;;;1.88;;
5981;SDS011;3018;48.730;9.336;2023-07-20T08:40:42;2.38;;;1.88;;
5981;SDS011;3018;48.730;9.336;2023-07-20T08:43:08;4.95;;;2.00;;
5981;SDS011;3018;48.730;9.336;2023-07-20T08:45:36;5.40;;;1.92;;
5981;SDS011;3018;48.730;9.336;2023-07-20T08:48:04;2.45;;;1.85;;
5981;SDS011;3018;48.730;9.336;2023-07-20T08:50:31;3.80;;;1.90;;
5981;SDS011;3018;48.730;9.336;2023-07-20T08:52:58;6.82;;;1.70;;
5981;SDS011;3018;48.730;9.336;2023-07-20T08:55:25;1.98;;;1.33;;
5981;SDS011;3018;48.730;9.336;2023-07-20T08:57:53;3.75;;;1.67;;
5981;SDS011;3018;48.730;9.336;2023-07-20T09:00:20;2.00;;;1.63;;
5981;SDS011;3018;48.730;9.336;2023-07-20T09:02:47;1.60;;;1.40;;
5981;SDS011;3018;48.730;9.336;2023-07-20T09:05:14;2.85;;;1.65;;
5981;SDS011;3018;48.730;9.336;2023-07-20T09:07:41;2.72;;;1.58;;
5981;SDS011;3018;48.730;9.336;2023-07-20T09:10:08;4.07;;;2.08;;
5981;SDS011;3018;48.730;9.336;2023-07-20T09:12:35;2.90;;;1.33;;
5981;SDS011;3018;48.730;9.336;2023-07-20T09:15:04;1.50;;;1.40;;
5981;SDS011;3018;48.730;9.336;2023-07-20T09:17:30;1.38;;;1.25;;
5981;SDS011;3018;48.730;9.336;2023-07-20T09:19:57;1.70;;;1.60;;
5981;SDS011;3018;48.730;9.336;2023-07-20T09:22:28;4.10;;;1.65;;
5981;SDS011;3018;48.730;9.336;2023-07-20T09:24:55;7.72;;;1.65;;
5981;SDS011;3018;48.730;9.336;2023-07-20T09:27:21;5.70;;;1.92;;
5981;SDS011;3018;48.730;9.336;2023-07-20T09:29:48;5.78;;;1.60;;
5981;SDS011;3018;48.730;9.336;2023-07-20T09:32:18;3.38;;;1.58;;
5981;SDS011;3018;48.730;9.336;2023-07-20T09:34:45;2.58;;;1.63;;
5981;SDS011;3018;48.730;9.336;2023-07-20T09:37:12;2.47;;;1.63;;
5981;SDS011;3018;48.730;9.336;2023-07-20T09:39:42;2.35;;;1.65;;
5981;SDS011;3018;48.730;9.336;2023-07-20T09:42:08;5.40;;;1.65;;
5981;SDS011;3018;48.730;9.336;2023-07-20T09:44:34;2.65;;;1.45;;
5981;SDS011;3018;48.730;9.336;2023-07-20T09:47:02;1.95;;;1.63;;
5981;SDS011;3018;48.730;9.336;2023-07-20T09:49:30;2.83;;;1.50;;
5981;SDS011;3018;48.730;9.336;2023-07-20T09:51:57;1.83;;;1.42;;
5981;SDS011;3018;48.730;9.336;2023-07-20T09:54:23;4.50;;;1.60;;
5981;SDS011;3018;48.730;9.336;2023-07-20T09:56:50;1.80;;;1.70;;
5981;SDS011;3018;48.730;9.336;2023-07-20T09:59:17;2.22;;;1.75;;
5981;SDS011;3018;48.730;9.336;2023-07-20T10:01:43;1.52;;;1.42;;
5981;SDS011;3018;48.730;9.336;2023-07-20T10:04:10;2.15;;;1.42;;
5981;SDS011;3018;48.730;9.336;2023-07-20T10:06:43;3.85;;;2.00;;
5981;SDS011;3018;48.730;9.336;2023-07-20T10:09:12;3.35;;;1.80;;
5981;SDS011;3018;48.730;9.336;2023-07-20T10:11:40;1.90;;;1.58;;
5981;SDS011;3018;48.730;9.336;2023-07-20T10:14:07;2.80;;;1.65;;
5981;SDS011;3018;48.730;9.336;2023-07-20T10:16:36;3.90;;;1.70;;
5981;SDS011;3018;48.730;9.336;2023-07-20T10:19:11;3.78;;;1.65;;
5981;SDS011;3018;48.730;9.336;2023-07-20T10:21:40;3.90;;;1.70;;
5981;SDS011;3018;48.730;9.336;2023-07-20T10:24:14;2.42;;;1.58;;
5981;SDS011;3018;48.730;9.336;2023-07-20T10:26:47;2.80;;;1.70;;
5981;SDS011;3018;48.730;9.336;2023-07-20T10:29:20;3.33;;;1.50;;
5981;SDS011;3018;48.730;9.336;2023-07-20T10:31:56;1.90;;;1.70;;
5981;SDS011;3018;48.730;9.336;2023-07-20T10:34:33;1.33;;;1.23;;
5981;SDS011;3018;48.730;9.336;2023-07-20T10:37:02;1.75;;;1.15;;
5981;SDS011;3018;48.730;9.336;2023-07-20T10:39:31;5.80;;;1.45;;
5981;SDS011;3018;48.730;9.336;2023-07-20T10:42:00;1.35;;;1.20;;
5981;SDS011;3018;48.730;9.336;2023-07-20T10:44:28;3.75;;;1.50;;
5981;SDS011;3018;48.730;9.336;2023-07-20T10:46:58;1.35;;;1.30;;
5981;SDS011;3018;48.730;9.336;2023-07-20T10:49:25;1.88;;;1.35;;
5981;SDS011;3018;48.730;9.336;2023-07-20T10:51:55;2.53;;;1.30;;
5981;SDS011;3018;48.730;9.336;2023-07-20T10:59:46;3.22;;;1.60;;
5981;SDS011;3018;48.730;9.336;2023-07-20T11:02:17;3.90;;;1.45;;
5981;SDS011;3018;48.730;9.336;2023-07-20T11:04:43;3.60;;;1.40;;
5981;SDS011;3018;48.730;9.336;2023-07-20T11:07:10;2.53;;;1.20;;
5981;SDS011;3018;48.730;9.336;2023-07-20T11:09:37;2.50;;;1.85;;
5981;SDS011;3018;48.730;9.336;2023-07-20T11:12:10;1.42;;;1.33;;
5981;SDS011;3018;48.730;9.336;2023-07-20T11:14:39;2.00;;;1.10;;
5981;SDS011;3018;48.730;9.336;2023-07-20T11:17:11;1.27;;;1.20;;
5981;SDS011;3018;48.730;9.336;2023-07-20T11:19:38;3.50;;;1.38;;
5981;SDS011;3018;48.730;9.336;2023-07-20T11:22:05;1.25;;;1.10;;
5981;SDS011;3018;48.730;9.336;2023-07-20T11:24:32;2.60;;;1.00;;
5981;SDS011;3018;48.730;9.336;2023-07-20T11:26:59;2.50;;;1.17;;
5981;SDS011;3018;48.730;9.336;2023-07-20T11:29:26;2.92;;;1.30;;
5981;SDS011;3018;48.730;9.336;2023-07-20T11:31:52;1.27;;;1.17;;
5981;SDS011;3018;48.730;9.336;2023-07-20T11:34:20;1.05;;;1.00;;
5981;SDS011;3018;48.730;9.336;2023-07-20T11:36:47;3.90;;;1.17;;
5981;SDS011;3018;48.730;9.336;2023-07-20T11:39:14;1.45;;;1.15;;
5981;SDS011;3018;48.730;9.336;2023-07-20T11:41:43;1.30;;;1.20;;
5981;SDS011;3018;48.730;9.336;2023-07-20T11:44:10;1.55;;;1.10;;
5981;SDS011;3018;48.730;9.336;2023-07-20T11:46:38;2.90;;;1.00;;
5981;SDS011;3018;48.730;9.336;2023-07-20T11:49:04;2.47;;;1.02;;
5981;SDS011;3018;48.730;9.336;2023-07-20T11:51:34;3.92;;;1.08;;
5981;SDS011;3018;48.730;9.336;2023-07-20T11:54:01;8.15;;;1.10;;
5981;SDS011;3018;48.730;9.336;2023-07-20T11:56:27;0.95;;;0.93;;
5981;SDS011;3018;48.730;9.336;2023-07-20T11:58:54;2.00;;;1.23;;
5981;SDS011;3018;48.730;9.336;2023-07-20T12:01:21;3.13;;;1.10;;
5981;SDS011;3018;48.730;9.336;2023-07-20T12:03:47;1.17;;;1.10;;
5981;SDS011;3018;48.730;9.336;2023-07-20T12:06:14;1.95;;;0.93;;
5981;SDS011;3018;48.730;9.336;2023-07-20T12:08:42;1.20;;;0.80;;
5981;SDS011;3018;48.730;9.336;2023-07-20T12:11:09;1.15;;;0.95;;
5981;SDS011;3018;48.730;9.336;2023-07-20T12:13:36;2.40;;;0.90;;
5981;SDS011;3018;48.730;9.336;2023-07-20T12:16:06;1.33;;;0.93;;
5981;SDS011;3018;48.730;9.336;2023-07-20T12:18:34;1.65;;;1.00;;
5981;SDS011;3018;48.730;9.336;2023-07-20T12:21:00;7.95;;;1.02;;
5981;SDS011;3018;48.730;9.336;2023-07-20T12:23:34;0.75;;;0.75;;
5981;SDS011;3018;48.730;9.336;2023-07-20T12:26:02;1.27;;;1.17;;
5981;SDS011;3018;48.730;9.336;2023-07-20T12:28:28;1.30;;;1.20;;
5981;SDS011;3018;48.730;9.336;2023-07-20T12:30:54;3.83;;;1.10;;
5981;SDS011;3018;48.730;9.336;2023-07-20T12:33:22;3.53;;;1.10;;
5981;SDS011;3018;48.730;9.336;2023-07-20T12:35:48;1.92;;;1.13;;
5981;SDS011;3018;48.730;9.336;2023-07-20T12:38:15;0.77;;;0.77;;
5981;SDS011;3018;48.730;9.336;2023-07-20T12:40:41;1.00;;;1.00;;
5981;SDS011;3018;48.730;9.336;2023-07-20T12:43:09;1.13;;;1.00;;
5981;SDS011;3018;48.730;9.336;2023-07-20T12:45:35;2.35;;;1.00;;
5981;SDS011;3018;48.730;9.336;2023-07-20T12:48:01;1.40;;;1.30;;
5981;SDS011;3018;48.730;9.336;2023-07-20T12:50:28;1.23;;;0.90;;
5981;SDS011;3018;48.730;9.336;2023-07-20T12:52:55;1.60;;;0.93;;
5981;SDS011;3018;48.730;9.336;2023-07-20T12:55:21;2.25;;;1.20;;
5981;SDS011;3018;48.730;9.336;2023-07-20T12:57:47;0.70;;;0.70;;
5981;SDS011;3018;48.730;9.336;2023-07-20T13:00:15;2.15;;;1.13;;
5981;SDS011;3018;48.730;9.336;2023-07-20T13:02:42;1.00;;;1.00;;
5981;SDS011;3018;48.730;9.336;2023-07-20T13:05:08;2.08;;;0.90;;
5981;SDS011;3018;48.730;9.336;2023-07-20T13:07:36;0.85;;;0.82;;
5981;SDS011;3018;48.730;9.336;2023-07-20T13:10:02;1.83;;;1.05;;
5981;SDS011;3018;48.730;9.336;2023-07-20T13:12:30;1.13;;;0.90;;
5981;SDS011;3018;48.730;9.336;2023-07-20T13:14:57;1.63;;;1.10;;
5981;SDS011;3018;48.730;9.336;2023-07-20T13:17:27;2.70;;;1.20;;
5981;SDS011;3018;48.730;9.336;2023-07-20T13:19:53;1.83;;;1.20;;
5981;SDS011;3018;48.730;9.336;2023-07-20T13:22:20;1.88;;;1.20;;
5981;SDS011;3018;48.730;9.336;2023-07-20T13:24:47;4.50;;;1.00;;
5981;SDS011;3018;48.730;9.336;2023-07-20T13:27:15;1.00;;;0.95;;
5981;SDS011;3018;48.730;9.336;2023-07-20T13:29:42;1.00;;;1.00;;
5981;SDS011;3018;48.730;9.336;2023-07-20T13:32:08;1.35;;;1.10;;
5981;SDS011;3018;48.730;9.336;2023-07-20T13:34:36;1.95;;;0.98;;
5981;SDS011;3018;48.730;9.336;2023-07-20T13:37:02;2.72;;;0.98;;
5981;SDS011;3018;48.730;9.336;2023-07-20T13:39:29;1.67;;;1.00;;
5981;SDS011;3018;48.730;9.336;2023-07-20T13:41:55;1.80;;;1.33;;
5981;SDS011;3018;48.730;9.336;2023-07-20T13:44:21;0.90;;;0.90;;
5981;SDS011;3018;48.730;9.336;2023-07-20T13:46:48;1.23;;;1.13;;
5981;SDS011;3018;48.730;9.336;2023-07-20T13:49:14;0.88;;;0.88;;
5981;SDS011;3018;48.730;9.336;2023-07-20T13:51:42;6.57;;;0.93;;
5981;SDS011;3018;48.730;9.336;2023-07-20T13:54:08;2.30;;;1.10;;
5981;SDS011;3018;48.730;9.336;2023-07-20T13:56:35;1.00;;;0.93;;
5981;SDS011;3018;48.730;9.336;2023-07-20T13:59:01;3.03;;;1.05;;
5981;SDS011;3018;48.730;9.336;2023-07-20T14:01:27;2.05;;;1.20;;
5981;SDS011;3018;48.730;9.336;2023-07-20T14:03:55;3.17;;;1.20;;
5981;SDS011;3018;48.730;9.336;2023-07-20T14:06:21;2.83;;;1.10;;
5981;SDS011;3018;48.730;9.336;2023-07-20T14:08:49;3.10;;;1.05;;
5981;SDS011;3018;48.730;9.336;2023-07-20T14:11:15;0.85;;;0.85;;
5981;SDS011;3018;48.730;9.336;2023-07-20T14:13:41;3.22;;;1.00;;
5981;SDS011;3018;48.730;9.336;2023-07-20T14:16:08;2.72;;;0.98;;
5981;SDS011;3018;48.730;9.336;2023-07-20T14:18:34;1.80;;;0.85;;
5981;SDS011;3018;48.730;9.336;2023-07-20T14:21:01;1.95;;;1.00;;
5981;SDS011;3018;48.730;9.336;2023-07-20T14:23:28;1.33;;;0.90;;
5981;SDS011;3018;48.730;9.336;2023-07-20T14:25:55;1.20;;;1.15;;
5981;SDS011;3018;48.730;9.336;2023-07-20T14:28:22;1.00;;;1.00;;
5981;SDS011;3018;48.730;9.336;2023-07-20T14:30:48;1.52;;;0.82;;
5981;SDS011;3018;48.730;9.336;2023-07-20T14:33:15;4.97;;;1.30;;
5981;SDS011;3018;48.730;9.336;2023-07-20T14:35:41;1.38;;;0.98;;
5981;SDS011;3018;48.730;9.336;2023-07-20T14:38:07;0.90;;;0.90;;
5981;SDS011;3018;48.730;9.336;2023-07-20T14:40:35;2.58;;;1.13;;
5981;SDS011;3018;48.730;9.336;2023-07-20T14:43:02;2.78;;;1.40;;
5981;SDS011;3018;48.730;9.336;2023-07-20T14:45:29;1.15;;;1.05;;
5981;SDS011;3018;48.730;9.336;2023-07-20T14:47:55;1.30;;;1.00;;
5981;SDS011;3018;48.730;9.336;2023-07-20T14:50:21;1.27;;;1.00;;
5981;SDS011;3018;48.730;9.336;2023-07-20T14:52:47;1.23;;;0.85;;
5981;SDS011;3018;48.730;9.336;2023-07-20T14:55:14;2.00;;;1.13;;
5981;SDS011;3018;48.730;9.336;2023-07-20T14:57:40;2.42;;;1.30;;
5981;SDS011;3018;48.730;9.336;2023-07-20T15:00:08;2.67;;;1.00;;
5981;SDS011;3018;48.730;9.336;2023-07-20T15:02:35;2.15;;;0.90;;
5981;SDS011;3018;48.730;9.336;2023-07-20T15:05:02;1.35;;;1.00;;
5981;SDS011;3018;48.730;9.336;2023-07-20T15:07:28;1.50;;;0.80;;
5981;SDS011;3018;48.730;9.336;2023-07-20T15:09:54;2.00;;;1.00;;
5981;SDS011;3018;48.730;9.336;2023-07-20T15:12:21;1.95;;;0.95;;
5981;SDS011;3018;48.730;9.336;2023-07-20T15:14:49;2.35;;;1.00;;
5981;SDS011;3018;48.730;9.336;2023-07-20T15:17:28;2.60;;;0.90;;
5981;SDS011;3018;48.730;9.336;2023-07-20T15:19:55;1.48;;;1.10;;
5981;SDS011;3018;48.730;9.336;2023-07-20T15:22:21;2.15;;;1.17;;